createdAt,value
2022-08-16T00:00:04.567Z,99494.84
2022-08-16T00:01:07.393Z,99488.78
2022-08-16T00:02:12.818Z,99492.75
2022-08-16T00:03:15.574Z,99500.34
2022-08-16T00:04:20.128Z,99497.84
2022-08-16T00:05:25.260Z,99489.81
2022-08-16T00:06:29.762Z,99493.75
2022-08-16T00:07:32.122Z,99486.53
2022-08-16T00:08:36.886Z,99491.31
2022-08-16T00:09:39.497Z,99490.88
2022-08-16T00:10:44.123Z,99490.03
2022-08-16T00:11:47.322Z,99487.56
2022-08-16T00:12:55.860Z,99487.56
2022-08-16T00:13:58.170Z,99485.13
2022-08-16T00:15:11.591Z,99481.50
2022-08-16T00:16:57.938Z,99484.66
2022-08-16T00:17:56.177Z,99485.00
2022-08-16T00:19:00.046Z,99482.56
2022-08-16T00:20:02.389Z,99479.25
2022-08-16T00:21:06.205Z,99473.22
2022-08-16T00:22:13.595Z,99477.97
2022-08-16T00:23:18.282Z,99476.34
2022-08-16T00:24:32.544Z,99475.88
2022-08-16T00:26:35.345Z,99477.03
2022-08-16T00:26:57.943Z,99477.41
2022-08-16T00:28:01.100Z,99487.81
2022-08-16T00:29:04.763Z,99478.09
2022-08-16T00:30:19.430Z,99485.69
2022-08-16T00:31:58.729Z,99478.44
2022-08-16T00:33:01.679Z,99481.94
2022-08-16T00:34:04.667Z,99485.91
2022-08-16T00:35:13.280Z,99483.47
2022-08-16T00:36:18.027Z,99489.41
2022-08-16T00:37:56.310Z,99494.53
2022-08-16T00:38:47.247Z,99484.84
2022-08-16T00:39:57.784Z,99496.41
2022-08-16T00:41:02.034Z,99489.50
2022-08-16T00:42:10.110Z,99485.06
2022-08-16T00:43:19.197Z,99489.06
2022-08-16T00:44:22.569Z,99486.94
2022-08-16T00:45:57.769Z,99492.09
2022-08-16T00:47:08.719Z,99488.00
2022-08-16T00:48:31.048Z,99481.91
2022-08-16T00:49:39.216Z,99477.44
2022-08-16T00:50:45.731Z,99489.00
2022-08-16T00:51:54.950Z,99487.72
2022-08-16T00:52:58.219Z,99476.88
2022-08-16T00:54:02.539Z,99477.22
2022-08-16T00:55:08.551Z,99484.78
2022-08-16T00:56:56.032Z,99487.13
2022-08-16T00:58:00.118Z,99491.09
2022-08-16T00:59:00.493Z,99492.25
2022-08-16T01:00:07.463Z,99487.00
2022-08-16T01:01:12.192Z,99485.34
2022-08-16T01:02:46.870Z,99489.31
2022-08-16T01:03:41.495Z,99494.91
2022-08-16T01:04:44.066Z,99493.59
2022-08-16T01:06:39.563Z,99493.59
2022-08-16T01:07:29.362Z,99493.94
2022-08-16T01:08:54.550Z,99491.13
2022-08-16T01:09:57.133Z,99495.09
2022-08-16T01:11:02.605Z,99489.84
2022-08-16T01:12:10.529Z,99494.16
2022-08-16T01:13:21.664Z,99499.31
2022-08-16T01:14:30.193Z,99504.06
2022-08-16T01:15:43.099Z,99498.81
2022-08-16T01:16:47.727Z,99502.78
2022-08-16T01:17:56.065Z,99498.34
2022-08-16T01:19:05.794Z,99496.72
2022-08-16T01:20:11.672Z,99497.03
2022-08-16T01:21:47.489Z,99510.59
2022-08-16T01:23:10.310Z,99496.09
2022-08-16T01:24:52.574Z,99499.25
2022-08-16T01:26:33.755Z,99494.34
2022-08-16T01:27:34.491Z,99493.84
2022-08-16T01:28:38.995Z,99498.63
2022-08-16T01:29:57.892Z,99493.72
2022-08-16T01:31:05.227Z,99495.69
2022-08-16T01:32:09.899Z,99501.66
2022-08-16T01:33:14.502Z,99498.00
2022-08-16T01:34:24.924Z,99508.75
2022-08-16T01:35:36.638Z,99514.34
2022-08-16T01:36:41.934Z,99518.31
2022-08-16T01:37:53.124Z,99516.66
2022-08-16T01:38:58.401Z,99515.38
2022-08-16T01:40:02.935Z,99517.00
2022-08-16T01:41:19.342Z,99517.38
2022-08-16T01:42:25.438Z,99515.72
2022-08-16T01:43:28.412Z,99519.66
2022-08-16T01:44:38.393Z,99519.66
2022-08-16T01:45:41.521Z,99515.25
2022-08-16T01:46:48.807Z,99512.78
2022-08-16T01:47:53.087Z,99515.56
2022-08-16T01:49:00.216Z,99509.50
2022-08-16T01:50:42.142Z,99512.66
2022-08-16T01:51:29.565Z,99513.81
2022-08-16T01:52:33.795Z,99501.78
2022-08-16T01:53:44.377Z,99510.19
2022-08-16T01:54:54.067Z,99504.13
2022-08-16T01:55:56.947Z,99512.84
2022-08-16T01:57:00.408Z,99508.41
2022-08-16T01:58:03.680Z,99512.03
2022-08-16T01:59:15.655Z,99514.00
2022-08-16T02:00:19.749Z,99512.38
2022-08-16T02:01:23.209Z,99517.97
2022-08-16T02:02:29.032Z,99513.53
2022-08-16T02:03:31.354Z,99511.06
2022-08-16T02:04:48.746Z,99515.88
2022-08-16T02:05:58.154Z,99515.03
2022-08-16T02:07:08.549Z,99509.78
2022-08-16T02:08:32.927Z,99512.56
2022-08-16T02:09:38.272Z,99509.78
2022-08-16T02:10:41.908Z,99504.53
2022-08-16T02:11:48.668Z,99500.88
2022-08-16T02:12:59.814Z,99508.81
2022-08-16T02:14:03.990Z,99514.41
2022-08-16T02:15:08.807Z,99503.22
2022-08-16T02:16:18.306Z,99503.56
2022-08-16T02:17:22.387Z,99505.53
2022-08-16T02:18:25.425Z,99499.94
2022-08-16T02:19:59.407Z,99504.72
2022-08-16T02:20:54.039Z,99500.28
2022-08-16T02:22:08.825Z,99504.72
2022-08-16T02:23:22.351Z,99498.63
2022-08-16T02:24:32.722Z,99505.06
2022-08-16T02:25:52.769Z,99497.00
2022-08-16T02:26:56.936Z,99501.78
2022-08-16T02:28:01.806Z,99496.53
2022-08-16T02:29:04.024Z,99498.50
2022-08-16T02:30:09.603Z,99499.66
2022-08-16T02:32:03.213Z,99494.06
2022-08-16T02:32:55.976Z,99496.03
2022-08-16T02:33:59.526Z,99495.22
2022-08-16T02:35:14.123Z,99495.22
2022-08-16T02:36:48.237Z,99493.56
2022-08-16T02:37:52.485Z,99502.28
2022-08-16T02:38:56.280Z,99493.88
2022-08-16T02:40:00.006Z,99493.06
2022-08-16T02:41:09.561Z,99495.03
2022-08-16T02:42:13.669Z,99500.97
2022-08-16T02:43:26.615Z,99498.19
2022-08-16T02:44:31.622Z,99496.53
2022-08-16T02:45:37.579Z,99503.28
2022-08-16T02:46:40.059Z,99500.03
2022-08-16T02:48:01.744Z,99496.38
2022-08-16T02:49:16.793Z,99501.19
2022-08-16T02:51:03.321Z,99497.56
2022-08-16T02:51:42.883Z,99500.72
2022-08-16T02:52:45.118Z,99502.69
2022-08-16T02:53:52.383Z,99505.00
2022-08-16T02:54:55.844Z,99504.16
2022-08-16T02:56:00.519Z,99504.53
2022-08-16T02:57:04.541Z,99491.69
2022-08-16T02:58:06.746Z,99497.28
2022-08-16T02:59:11.430Z,99500.41
2022-08-16T03:00:34.410Z,99506.34
2022-08-16T03:01:39.261Z,99497.97
2022-08-16T03:02:48.125Z,99498.31
2022-08-16T03:04:40.782Z,99507.84
2022-08-16T03:05:24.878Z,99495.00
2022-08-16T03:06:41.686Z,99504.56
2022-08-16T03:07:54.902Z,99508.50
2022-08-16T03:08:57.939Z,99509.69
2022-08-16T03:10:02.889Z,99518.09
2022-08-16T03:11:18.066Z,99510.84
2022-08-16T03:12:30.216Z,99506.41
2022-08-16T03:13:40.644Z,99515.94
2022-08-16T03:14:45.537Z,99520.72
2022-08-16T03:15:49.705Z,99517.09
2022-08-16T03:16:59.831Z,99517.09
2022-08-16T03:18:12.608Z,99521.06
2022-08-16T03:19:22.297Z,99526.66
2022-08-16T03:20:32.388Z,99518.94
2022-08-16T03:21:38.803Z,99528.16
2022-08-16T03:22:45.351Z,99525.69
2022-08-16T03:23:49.879Z,99528.50
2022-08-16T03:24:53.961Z,99532.44
2022-08-16T03:26:00.856Z,99528.00
2022-08-16T03:27:04.611Z,99527.19
2022-08-16T03:28:10.232Z,99524.72
2022-08-16T03:29:13.834Z,99529.50
2022-08-16T03:30:21.101Z,99528.69
2022-08-16T03:31:34.820Z,99532.63
2022-08-16T03:32:43.876Z,99536.59
2022-08-16T03:33:46.984Z,99533.28
2022-08-16T03:34:55.017Z,99540.88
2022-08-16T03:36:30.938Z,99540.38
2022-08-16T03:37:25.442Z,99535.63
2022-08-16T03:38:33.498Z,99539.22
2022-08-16T03:39:47.160Z,99543.16
2022-08-16T03:40:49.404Z,99544.34
2022-08-16T03:41:59.574Z,99541.88
2022-08-16T03:43:20.667Z,99547.16
2022-08-16T03:44:40.815Z,99539.41
2022-08-16T03:45:47.151Z,99545.84
2022-08-16T03:46:50.340Z,99543.34
2022-08-16T03:48:09.412Z,99544.53
2022-08-16T03:49:17.426Z,99546.50
2022-08-16T03:50:26.026Z,99549.28
2022-08-16T03:51:30.250Z,99544.84
2022-08-16T03:52:38.125Z,99540.44
2022-08-16T03:53:46.118Z,99548.81
2022-08-16T03:55:04.716Z,99544.72
2022-08-16T03:56:20.033Z,99551.97
2022-08-16T03:57:31.990Z,99549.16
2022-08-16T03:58:40.029Z,99551.97
2022-08-16T03:59:47.234Z,99548.31
2022-08-16T04:00:56.830Z,99551.13
2022-08-16T04:02:02.807Z,99555.06
2022-08-16T04:03:08.518Z,99551.47
2022-08-16T04:04:13.498Z,99554.25
2022-08-16T04:05:39.712Z,99553.44
2022-08-16T04:06:42.005Z,99559.03
2022-08-16T04:07:47.174Z,99553.44
2022-08-16T04:08:53.447Z,99557.84
2022-08-16T04:09:55.675Z,99554.59
2022-08-16T04:10:59.643Z,99557.84
2022-08-16T04:12:11.067Z,99569.03
2022-08-16T04:14:01.250Z,99557.84
2022-08-16T04:14:51.891Z,99566.75
2022-08-16T04:15:54.164Z,99562.31
2022-08-16T04:16:59.489Z,99556.72
2022-08-16T04:18:12.441Z,99570.34
2022-08-16T04:19:16.793Z,99575.13
2022-08-16T04:20:31.471Z,99568.72
2022-08-16T04:21:47.342Z,99577.94
2022-08-16T04:22:56.988Z,99564.75
2022-08-16T04:24:08.049Z,99567.56
2022-08-16T04:25:13.037Z,99574.00
2022-08-16T04:26:16.765Z,99571.19
2022-08-16T04:27:20.383Z,99574.00
2022-08-16T04:28:52.372Z,99569.22
2022-08-16T04:29:46.954Z,99591.25
2022-08-16T04:30:54.623Z,99585.66
2022-08-16T04:31:58.383Z,99582.84
2022-08-16T04:33:07.431Z,99581.69
2022-08-16T04:34:12.486Z,99577.75
2022-08-16T04:35:20.361Z,99586.16
2022-08-16T04:36:27.546Z,99588.09
2022-08-16T04:37:30.414Z,99593.38
2022-08-16T04:38:42.168Z,99598.13
2022-08-16T04:39:47.421Z,99597.81
2022-08-16T04:40:59.866Z,99592.22
2022-08-16T04:42:11.148Z,99600.28
2022-08-16T04:43:17.755Z,99601.09
2022-08-16T04:44:30.977Z,99593.53
2022-08-16T04:45:37.007Z,99596.81
2022-08-16T04:47:02.923Z,99598.13
2022-08-16T04:48:22.080Z,99595.81
2022-08-16T04:49:43.603Z,99597.13
2022-08-16T04:50:49.399Z,99600.06
2022-08-16T04:51:55.451Z,99603.34
2022-08-16T04:52:59.266Z,99603.50
2022-08-16T04:54:04.484Z,99601.69
2022-08-16T04:55:16.120Z,99605.44
2022-08-16T04:56:20.789Z,99606.06
2022-08-16T04:57:26.384Z,99609.84
2022-08-16T04:58:45.997Z,99607.69
2022-08-16T04:59:51.044Z,99607.53
2022-08-16T05:00:56.811Z,99608.50
2022-08-16T05:01:59.651Z,99605.16
2022-08-16T05:03:09.773Z,99608.25
2022-08-16T05:04:25.914Z,99611.31
2022-08-16T05:05:40.249Z,99615.22
2022-08-16T05:06:51.319Z,99611.53
2022-08-16T05:08:00.901Z,99623.84
2022-08-16T05:09:30.318Z,99619.84
2022-08-16T05:10:39.391Z,99611.69
2022-08-16T05:11:41.825Z,99615.59
2022-08-16T05:12:44.786Z,99618.38
2022-08-16T05:13:48.366Z,99614.66
2022-08-16T05:15:02.375Z,99625.81
2022-08-16T05:16:06.027Z,99619.78
2022-08-16T05:17:09.768Z,99618.88
2022-08-16T05:18:16.589Z,99614.81
2022-08-16T05:19:27.537Z,99623.63
2022-08-16T05:21:09.761Z,99628.78
2022-08-16T05:22:18.067Z,99626.06
2022-08-16T05:23:23.921Z,99627.22
2022-08-16T05:24:27.206Z,99627.63
2022-08-16T05:25:40.972Z,99624.66
2022-08-16T05:26:51.359Z,99631.94
2022-08-16T05:27:56.608Z,99632.66
2022-08-16T05:29:03.715Z,99628.53
2022-08-16T05:30:36.770Z,99638.53
2022-08-16T05:31:31.345Z,99642.47
2022-08-16T05:32:45.604Z,99636.38
2022-08-16T05:33:53.566Z,99630.25
2022-08-16T05:34:59.531Z,99638.22
2022-08-16T05:36:03.766Z,99637.25
2022-08-16T05:37:08.404Z,99639.91
2022-08-16T05:38:30.846Z,99636.63
2022-08-16T05:39:40.665Z,99630.97
2022-08-16T05:40:43.673Z,99632.44
2022-08-16T05:42:02.605Z,99633.19
2022-08-16T05:43:05.645Z,99631.03
2022-08-16T05:44:23.033Z,99625.69
2022-08-16T05:45:27.411Z,99629.63
2022-08-16T05:46:35.430Z,99626.28
2022-08-16T05:48:00.216Z,99627.00
2022-08-16T05:49:22.191Z,99625.72
2022-08-16T05:50:34.384Z,99627.63
2022-08-16T05:51:40.168Z,99630.34
2022-08-16T05:52:44.817Z,99630.25
2022-08-16T05:53:48.224Z,99632.13
2022-08-16T05:54:58.422Z,99635.63
2022-08-16T05:56:04.424Z,99636.31
2022-08-16T05:57:13.251Z,99638.19
2022-08-16T05:58:31.444Z,99642.16
2022-08-16T05:59:35.261Z,99631.16
2022-08-16T06:00:40.032Z,99636.63
2022-08-16T06:01:46.866Z,99637.28
2022-08-16T06:02:50.194Z,99627.47
2022-08-16T06:04:34.471Z,99624.53
2022-08-16T06:05:41.424Z,99627.25
2022-08-16T06:06:56.376Z,99629.50
2022-08-16T06:07:59.757Z,99630.53
2022-08-16T06:09:08.869Z,99634.78
2022-08-16T06:10:12.966Z,99643.50
2022-08-16T06:11:15.263Z,99638.81
2022-08-16T06:12:27.399Z,99649.13
2022-08-16T06:13:32.532Z,99640.88
2022-08-16T06:14:35.797Z,99652.38
2022-08-16T06:15:41.536Z,99653.75
2022-08-16T06:16:44.922Z,99649.06
2022-08-16T06:17:53.307Z,99650.03
2022-08-16T06:19:04.849Z,99649.00
2022-08-16T06:20:25.642Z,99641.88
2022-08-16T06:21:38.550Z,99642.00
2022-08-16T06:22:44.525Z,99642.53
2022-08-16T06:23:47.092Z,99642.25
2022-08-16T06:24:56.174Z,99638.69
2022-08-16T06:25:59.098Z,99637.56
2022-08-16T06:27:05.669Z,99638.06
2022-08-16T06:28:17.075Z,99643.84
2022-08-16T06:29:36.621Z,99648.38
2022-08-16T06:30:43.736Z,99645.63
2022-08-16T06:31:49.266Z,99646.47
2022-08-16T06:32:55.752Z,99647.38
2022-08-16T06:33:58.595Z,99642.13
2022-08-16T06:35:05.346Z,99643.38
2022-08-16T06:36:13.890Z,99638.94
2022-08-16T06:37:21.927Z,99641.00
2022-08-16T06:38:33.846Z,99634.13
2022-08-16T06:39:49.180Z,99643.06
2022-08-16T06:40:59.476Z,99653.22
2022-08-16T06:42:02.439Z,99645.50
2022-08-16T06:43:27.558Z,99649.56
2022-08-16T06:44:38.191Z,99650.75
2022-08-16T06:45:48.507Z,99649.06
2022-08-16T06:46:55.729Z,99656.34
2022-08-16T06:47:58.377Z,99655.13
2022-08-16T06:49:05.621Z,99657.53
2022-08-16T06:50:22.261Z,99651.78
2022-08-16T06:51:45.884Z,99658.22
2022-08-16T06:52:57.685Z,99662.25
2022-08-16T06:54:01.861Z,99665.00
2022-08-16T06:55:06.085Z,99665.75
2022-08-16T06:56:22.922Z,99667.31
2022-08-16T06:57:57.928Z,99668.84
2022-08-16T06:59:00.797Z,99671.25
2022-08-16T07:00:24.332Z,99667.88
2022-08-16T07:01:44.844Z,99666.94
2022-08-16T07:02:54.106Z,99661.97
2022-08-16T07:03:57.543Z,99671.66
2022-08-16T07:05:15.099Z,99667.44
2022-08-16T07:06:31.484Z,99671.00
2022-08-16T07:07:38.199Z,99671.69
2022-08-16T07:08:42.677Z,99680.16
2022-08-16T07:09:45.254Z,99672.69
2022-08-16T07:10:50.550Z,99675.03
2022-08-16T07:11:54.036Z,99676.94
2022-08-16T07:13:12.021Z,99672.31
2022-08-16T07:14:25.882Z,99677.09
2022-08-16T07:15:31.811Z,99674.09
2022-08-16T07:16:34.835Z,99663.38
2022-08-16T07:17:37.750Z,99664.88
2022-08-16T07:19:01.612Z,99671.66
2022-08-16T07:20:35.685Z,99678.88
2022-08-16T07:21:46.222Z,99675.03
2022-08-16T07:22:58.634Z,99672.78
2022-08-16T07:24:30.407Z,99682.41
2022-08-16T07:25:40.253Z,99683.47
2022-08-16T07:26:48.550Z,99682.13
2022-08-16T07:27:51.873Z,99682.00
2022-08-16T07:28:59.829Z,99687.16
2022-08-16T07:30:02.529Z,99696.44
2022-08-16T07:31:13.273Z,99688.94
2022-08-16T07:32:20.964Z,99684.31
2022-08-16T07:33:51.291Z,99697.25
2022-08-16T07:34:55.609Z,99686.13
2022-08-16T07:35:59.684Z,99690.09
2022-08-16T07:37:09.569Z,99694.88
2022-08-16T07:38:39.495Z,99697.56
2022-08-16T07:39:44.178Z,99692.16
2022-08-16T07:41:00.245Z,99696.91
2022-08-16T07:42:06.895Z,99696.38
2022-08-16T07:43:09.709Z,99700.38
2022-08-16T07:44:15.379Z,99701.47
2022-08-16T07:45:22.816Z,99695.19
2022-08-16T07:46:38.527Z,99697.56
2022-08-16T07:47:51.187Z,99698.19
2022-08-16T07:48:55.338Z,99695.25
2022-08-16T07:50:07.731Z,99700.47
2022-08-16T07:51:10.698Z,99701.56
2022-08-16T07:52:18.982Z,99698.16
2022-08-16T07:53:22.958Z,99696.03
2022-08-16T07:54:32.130Z,99711.88
2022-08-16T07:55:47.631Z,99700.72
2022-08-16T07:56:58.829Z,99702.59
2022-08-16T07:58:03.194Z,99703.66
2022-08-16T07:59:08.823Z,99696.22
2022-08-16T08:00:18.632Z,99700.16
2022-08-16T08:01:24.957Z,99695.94
2022-08-16T08:02:33.263Z,99692.53
2022-08-16T08:03:39.915Z,99694.06
2022-08-16T08:04:45.707Z,99694.44
2022-08-16T08:05:48.707Z,99703.75
2022-08-16T08:06:52.248Z,99694.25
2022-08-16T08:07:57.664Z,99702.31
2022-08-16T08:09:00.663Z,99708.34
2022-08-16T08:10:05.566Z,99709.03
2022-08-16T08:11:14.472Z,99707.31
2022-08-16T08:12:32.416Z,99709.66
2022-08-16T08:13:42.630Z,99709.09
2022-08-16T08:14:49.205Z,99706.94
2022-08-16T08:15:53.501Z,99706.88
2022-08-16T08:16:56.288Z,99707.56
2022-08-16T08:18:29.758Z,99707.81
2022-08-16T08:19:27.670Z,99709.34
2022-08-16T08:20:33.828Z,99709.59
2022-08-16T08:21:58.545Z,99711.56
2022-08-16T08:23:25.700Z,99712.25
2022-08-16T08:24:32.033Z,99711.34
2022-08-16T08:25:54.981Z,99713.66
2022-08-16T08:27:04.058Z,99706.56
2022-08-16T08:28:10.769Z,99710.16
2022-08-16T08:29:14.136Z,99707.19
2022-08-16T08:30:49.660Z,99709.94
2022-08-16T08:31:42.710Z,99702.13
2022-08-16T08:32:58.072Z,99710.38
2022-08-16T08:34:05.291Z,99703.38
2022-08-16T08:35:10.410Z,99710.38
2022-08-16T08:36:22.216Z,99709.94
2022-08-16T08:37:27.749Z,99713.63
2022-08-16T08:38:53.521Z,99712.34
2022-08-16T08:39:57.171Z,99706.94
2022-08-16T08:40:59.634Z,99709.38
2022-08-16T08:42:03.685Z,99696.59
2022-08-16T08:43:12.107Z,99702.25
2022-08-16T08:44:29.341Z,99709.16
2022-08-16T08:45:47.319Z,99704.91
2022-08-16T08:47:00.046Z,99706.03
2022-08-16T08:48:05.980Z,99710.06
2022-08-16T08:49:09.498Z,99707.91
2022-08-16T08:50:31.947Z,99701.72
2022-08-16T08:51:36.728Z,99706.53
2022-08-16T08:52:44.490Z,99704.44
2022-08-16T08:53:57.823Z,99702.72
2022-08-16T08:55:10.892Z,99701.38
2022-08-16T08:56:23.770Z,99700.47
2022-08-16T08:57:30.042Z,99704.50
2022-08-16T08:58:53.604Z,99704.84
2022-08-16T09:00:12.913Z,99704.38
2022-08-16T09:01:31.664Z,99706.78
2022-08-16T09:02:38.856Z,99709.66
2022-08-16T09:03:41.219Z,99704.28
2022-08-16T09:04:47.725Z,99706.69
2022-08-16T09:05:52.485Z,99707.47
2022-08-16T09:06:58.591Z,99705.31
2022-08-16T09:08:06.257Z,99704.03
2022-08-16T09:09:33.636Z,99700.72
2022-08-16T09:10:39.491Z,99708.41
2022-08-16T09:11:47.307Z,99710.34
2022-08-16T09:12:52.344Z,99702.88
2022-08-16T09:13:58.111Z,99699.53
2022-08-16T09:15:01.061Z,99701.50
2022-08-16T09:16:10.541Z,99702.66
2022-08-16T09:17:38.304Z,99706.66
2022-08-16T09:18:38.043Z,99708.28
2022-08-16T09:19:44.828Z,99711.06
2022-08-16T09:20:59.374Z,99709.31
2022-08-16T09:22:03.411Z,99714.97
2022-08-16T09:23:06.962Z,99710.03
2022-08-16T09:24:39.126Z,99709.56
2022-08-16T09:25:37.476Z,99710.38
2022-08-16T09:26:45.507Z,99707.00
2022-08-16T09:27:56.691Z,99712.31
2022-08-16T09:29:15.697Z,99713.13
2022-08-16T09:30:33.642Z,99700.34
2022-08-16T09:31:41.109Z,99705.28
2022-08-16T09:32:47.005Z,99704.81
2022-08-16T09:33:52.155Z,99701.94
2022-08-16T09:34:54.550Z,99703.06
2022-08-16T09:36:01.297Z,99698.13
2022-08-16T09:37:17.962Z,99703.06
2022-08-16T09:38:32.085Z,99690.78
2022-08-16T09:39:41.300Z,99696.06
2022-08-16T09:40:47.315Z,99700.19
2022-08-16T09:41:53.941Z,99698.63
2022-08-16T09:42:58.937Z,99694.13
2022-08-16T09:45:11.421Z,99697.47
2022-08-16T09:45:29.075Z,99697.91
2022-08-16T09:46:49.075Z,99693.44
2022-08-16T09:47:55.658Z,99693.44
2022-08-16T09:49:03.457Z,99693.88
2022-08-16T09:50:14.180Z,99689.88
2022-08-16T09:51:30.821Z,99693.66
2022-08-16T09:52:44.406Z,99682.16
2022-08-16T09:53:53.880Z,99686.66
2022-08-16T09:54:57.339Z,99696.56
2022-08-16T09:55:59.514Z,99689.66
2022-08-16T09:57:02.881Z,99685.97
2022-08-16T09:58:05.421Z,99679.38
2022-08-16T09:59:11.373Z,99685.16
2022-08-16T10:00:42.336Z,99687.22
2022-08-16T10:01:43.524Z,99695.16
2022-08-16T10:02:49.475Z,99688.00
2022-08-16T10:04:02.666Z,99682.41
2022-08-16T10:05:06.675Z,99697.00
2022-08-16T10:06:11.208Z,99687.81
2022-08-16T10:07:16.051Z,99689.66
2022-08-16T10:08:25.978Z,99696.44
2022-08-16T10:09:44.947Z,99691.34
2022-08-16T10:11:10.431Z,99684.75
2022-08-16T10:12:31.534Z,99679.25
2022-08-16T10:13:39.607Z,99682.09
2022-08-16T10:14:45.948Z,99680.22
2022-08-16T10:15:54.817Z,99686.53
2022-08-16T10:17:03.375Z,99679.72
2022-08-16T10:19:00.962Z,99684.78
2022-08-16T10:19:32.458Z,99690.28
2022-08-16T10:20:37.904Z,99688.31
2022-08-16T10:21:40.641Z,99687.97
2022-08-16T10:22:43.522Z,99683.56
2022-08-16T10:23:48.678Z,99684.97
2022-08-16T10:24:56.218Z,99685.16
2022-08-16T10:27:19.426Z,99682.34
2022-08-16T10:27:27.286Z,99687.00
2022-08-16T10:28:39.635Z,99682.19
2022-08-16T10:30:00.028Z,99674.13
2022-08-16T10:31:05.784Z,99677.63
2022-08-16T10:32:08.775Z,99680.72
2022-08-16T10:33:13.767Z,99692.28
2022-08-16T10:34:31.475Z,99688.00
2022-08-16T10:35:34.855Z,99678.72
2022-08-16T10:36:54.264Z,99680.50
2022-08-16T10:37:57.393Z,99684.28
2022-08-16T10:38:59.941Z,99671.28
2022-08-16T10:40:02.307Z,99679.19
2022-08-16T10:41:10.356Z,99671.47
2022-08-16T10:42:13.180Z,99672.34
2022-08-16T10:43:18.551Z,99679.78
2022-08-16T10:44:21.237Z,99672.09
2022-08-16T10:45:23.649Z,99675.41
2022-08-16T10:46:39.358Z,99678.75
2022-08-16T10:47:45.638Z,99675.94
2022-08-16T10:48:48.068Z,99674.34
2022-08-16T10:49:50.482Z,99680.13
2022-08-16T10:50:53.926Z,99678.06
2022-08-16T10:52:01.716Z,99674.84
2022-08-16T10:53:07.505Z,99672.75
2022-08-16T10:54:29.085Z,99666.59
2022-08-16T10:55:44.197Z,99674.47
2022-08-16T10:56:55.426Z,99672.41
2022-08-16T10:58:11.372Z,99683.06
2022-08-16T10:59:32.607Z,99674.47
2022-08-16T11:00:40.681Z,99673.66
2022-08-16T11:01:44.345Z,99671.59
2022-08-16T11:02:58.930Z,99667.13
2022-08-16T11:05:04.717Z,99678.59
2022-08-16T11:05:26.569Z,99671.59
2022-08-16T11:06:30.138Z,99671.59
2022-08-16T11:07:52.370Z,99673.66
2022-08-16T11:13:57.843Z,99665.13
2022-08-16T11:17:32.728Z,99659.41
2022-08-16T11:19:03.839Z,99660.72
2022-08-16T11:20:36.645Z,99660.06
2022-08-16T11:21:29.085Z,99651.66
2022-08-16T11:22:46.994Z,99649.28
2022-08-16T11:23:57.489Z,99651.84
2022-08-16T11:26:06.581Z,99652.38
2022-08-16T11:26:24.148Z,99657.81
2022-08-16T11:27:35.540Z,99655.84
2022-08-16T11:30:00.966Z,99650.25
2022-08-16T11:31:03.607Z,99651.16
2022-08-16T11:32:07.605Z,99658.13
2022-08-16T11:33:12.464Z,99642.63
2022-08-16T11:34:14.892Z,99650.50
2022-08-16T11:36:53.894Z,99652.63
2022-08-16T11:38:47.038Z,99656.31
2022-08-16T11:39:31.807Z,99647.38
2022-08-16T11:40:44.364Z,99655.16
2022-08-16T11:41:49.313Z,99641.72
2022-08-16T11:42:55.476Z,99644.22
2022-08-16T11:43:58.764Z,99647.53
2022-08-16T11:45:01.309Z,99639.38
2022-08-16T11:46:43.804Z,99645.53
2022-08-16T11:47:30.436Z,99640.25
2022-08-16T11:48:35.254Z,99640.25
2022-08-16T11:49:37.530Z,99640.69
2022-08-16T11:50:42.222Z,99635.41
2022-08-16T11:51:46.862Z,99637.47
2022-08-16T11:52:49.079Z,99635.47
2022-08-16T11:53:51.820Z,99634.28
2022-08-16T11:54:57.076Z,99639.66
2022-08-16T11:56:02.440Z,99632.31
2022-08-16T11:57:09.182Z,99643.38
2022-08-16T11:58:12.410Z,99641.41
2022-08-16T11:59:16.662Z,99637.38
2022-08-16T12:00:34.160Z,99632.09
2022-08-16T12:01:44.380Z,99637.44
2022-08-16T12:02:58.364Z,99634.22
2022-08-16T12:04:00.573Z,99633.38
2022-08-16T12:05:03.277Z,99628.09
2022-08-16T12:06:25.347Z,99629.34
2022-08-16T12:07:33.324Z,99635.50
2022-08-16T12:08:35.906Z,99626.56
2022-08-16T12:09:43.239Z,99627.78
2022-08-16T12:10:46.716Z,99636.44
2022-08-16T12:11:53.025Z,99626.66
2022-08-16T12:12:57.951Z,99629.97
2022-08-16T12:14:04.457Z,99633.72
2022-08-16T12:15:08.134Z,99632.53
2022-08-16T12:16:10.990Z,99626.88
2022-08-16T12:17:16.240Z,99630.16
2022-08-16T12:18:20.781Z,99626.94
2022-08-16T12:19:35.081Z,99628.59
2022-08-16T12:20:41.062Z,99626.97
2022-08-16T12:21:59.229Z,99638.06
2022-08-16T12:23:03.362Z,99625.81
2022-08-16T12:24:06.778Z,99627.88
2022-08-16T12:25:12.607Z,99627.03
2022-08-16T12:26:17.445Z,99626.69
2022-08-16T12:27:24.854Z,99622.19
2022-08-16T12:28:37.066Z,99623.88
2022-08-16T12:29:50.263Z,99629.59
2022-08-16T12:30:53.377Z,99620.66
2022-08-16T12:32:01.535Z,99626.78
2022-08-16T12:33:25.484Z,99625.63
2022-08-16T12:34:29.654Z,99616.69
2022-08-16T12:35:34.044Z,99628.13
2022-08-16T12:36:36.863Z,99628.16
2022-08-16T12:37:41.434Z,99629.84
2022-08-16T12:38:48.237Z,99623.72
2022-08-16T12:39:55.720Z,99623.78
2022-08-16T12:40:58.368Z,99623.84
2022-08-16T12:42:01.518Z,99619.41
2022-08-16T12:43:06.781Z,99620.28
2022-08-16T12:44:11.280Z,99621.59
2022-08-16T12:45:23.963Z,99619.66
2022-08-16T12:46:26.217Z,99616.44
2022-08-16T12:47:47.560Z,99616.47
2022-08-16T12:49:00.022Z,99617.34
2022-08-16T12:50:02.806Z,99622.28
2022-08-16T12:51:13.431Z,99622.72
2022-08-16T12:52:33.479Z,99621.19
2022-08-16T12:53:40.035Z,99613.84
2022-08-16T12:54:42.473Z,99609.44
2022-08-16T12:55:45.017Z,99608.66
2022-08-16T12:56:48.327Z,99611.59
2022-08-16T12:57:58.406Z,99606.38
2022-08-16T12:59:06.681Z,99604.78
2022-08-16T13:00:26.713Z,99619.13
2022-08-16T13:01:34.468Z,99615.06
2022-08-16T13:02:36.909Z,99613.88
2022-08-16T13:03:41.530Z,99608.25
2022-08-16T13:04:43.738Z,99609.91
2022-08-16T13:05:53.603Z,99617.28
2022-08-16T13:06:59.279Z,99606.69
2022-08-16T13:08:01.577Z,99610.78
2022-08-16T13:09:20.873Z,99610.41
2022-08-16T13:10:38.083Z,99605.13
2022-08-16T13:11:49.139Z,99606.34
2022-08-16T13:13:00.359Z,99614.09
2022-08-16T13:14:02.651Z,99614.09
2022-08-16T13:15:10.875Z,99606.78
2022-08-16T13:16:20.322Z,99611.25
2022-08-16T13:17:29.667Z,99610.41
2022-08-16T13:18:35.447Z,99608.41
2022-08-16T13:20:06.073Z,99614.09
2022-08-16T13:21:07.305Z,99607.56
2022-08-16T13:22:09.723Z,99614.09
2022-08-16T13:23:21.553Z,99608.78
2022-08-16T13:24:25.034Z,99612.47
2022-08-16T13:25:28.919Z,99616.97
2022-08-16T13:26:31.135Z,99613.72
2022-08-16T13:28:02.147Z,99609.22
2022-08-16T13:28:55.635Z,99614.16
2022-08-16T13:29:58.052Z,99614.94
2022-08-16T13:31:01.299Z,99619.03
2022-08-16T13:32:07.083Z,99607.59
2022-08-16T13:33:15.759Z,99610.09
2022-08-16T13:34:20.370Z,99611.72
2022-08-16T13:35:24.414Z,99610.91
2022-08-16T13:37:50.522Z,99610.13
2022-08-16T13:38:54.333Z,99608.94
2022-08-16T13:39:56.767Z,99609.38
2022-08-16T13:40:59.171Z,99609.81
2022-08-16T13:42:03.206Z,99611.03
2022-08-16T13:43:05.381Z,99620.84
2022-08-16T13:44:09.207Z,99615.56
2022-08-16T13:45:15.773Z,99611.88
2022-08-16T13:46:18.757Z,99611.50
2022-08-16T13:47:20.973Z,99617.66